Time;durP1;ratioP1;P1;durP2;ratioP2;P2;SDS_P1;SDS_P2;PMS_P1;PMS_P2;Temp;Humidity;BMP_temperature;BMP_pressure;BME280_temperature;BME280_humidity;BME280_pressure;Samples;Min_cycle;Max_cycle;Signal;HPM_P1;HPM_P2
2021/04/26 00:01:05;;;;;;;20.20;8.30;;;;;;;5.60;100.00;100104.28;1747911;81;21158;-78
2021/04/26 00:03:34;;;;;;;17.87;7.30;;;;;;;5.60;100.00;100104.28;1761277;80;21149;-78
2021/04/26 00:06:02;;;;;;;15.43;7.03;;;;;;;5.57;100.00;100107.23;1763120;80;21146;-78
2021/04/26 00:08:30;;;;;;;18.57;8.03;;;;;;;5.55;100.00;100099.32;1763785;81;21138;-78
2021/04/26 00:10:58;;;;;;;16.63;7.27;;;;;;;5.51;100.00;100108.13;1763560;81;21282;-77
2021/04/26 00:13:27;;;;;;;15.37;6.97;;;;;;;5.49;100.00;100107.93;1764142;81;21149;-77
2021/04/26 00:15:55;;;;;;;16.27;6.87;;;;;;;5.46;100.00;100102.33;1775887;80;21683;-77
2021/04/26 00:18:22;;;;;;;15.37;7.10;;;;;;;5.45;100.00;100110.50;1776800;80;21533;-78
2021/04/26 00:20:50;;;;;;;14.20;6.20;;;;;;;5.41;100.00;100109.93;1772120;81;21129;-77
2021/04/26 00:23:19;;;;;;;15.63;6.73;;;;;;;5.37;100.00;100108.52;1772146;81;21138;-78
2021/04/26 00:25:49;;;;;;;14.07;6.57;;;;;;;5.32;100.00;100106.23;1772036;81;21094;-78
2021/04/26 00:28:18;;;;;;;12.43;6.50;;;;;;;5.27;100.00;100104.95;1771929;81;21145;-78
2021/04/26 00:30:46;;;;;;;14.90;6.80;;;;;;;5.20;100.00;100100.61;1772185;81;21283;-78
2021/04/26 00:33:15;;;;;;;14.63;6.70;;;;;;;5.16;100.00;100108.58;1771884;81;21129;-78
2021/04/26 00:35:43;;;;;;;15.80;6.63;;;;;;;5.10;100.00;100104.60;1772258;81;21133;-78
2021/04/26 00:38:10;;;;;;;16.23;7.00;;;;;;;5.05;100.00;100103.31;1772066;81;21130;-78
2021/04/26 00:40:39;;;;;;;13.30;6.60;;;;;;;4.97;100.00;100103.96;1772021;81;21122;-77
2021/04/26 00:43:07;;;;;;;12.97;6.50;;;;;;;4.90;100.00;100096.94;1771874;80;21615;-77
2021/04/26 00:45:35;;;;;;;12.10;6.20;;;;;;;4.85;100.00;100096.52;1772090;81;21146;-78
2021/04/26 00:48:03;;;;;;;14.10;6.17;;;;;;;4.81;100.00;100094.22;1771976;81;21189;-77
2021/04/26 00:50:32;;;;;;;10.37;5.63;;;;;;;4.76;100.00;100099.97;1771873;81;21150;-78
2021/04/26 00:53:02;;;;;;;13.03;5.73;;;;;;;4.71;100.00;100087.45;1772018;80;21535;-78
2021/04/26 00:55:35;;;;;;;15.43;6.80;;;;;;;4.66;100.00;100083.86;1772192;81;21524;-78
2021/04/26 00:58:03;;;;;;;14.53;6.30;;;;;;;4.61;100.00;100079.38;1772362;81;21150;-78
2021/04/26 01:00:32;;;;;;;14.80;6.13;;;;;;;4.59;100.00;100082.69;1771975;81;21414;-78
2021/04/26 01:02:59;;;;;;;15.60;6.37;;;;;;;4.55;100.00;100076.74;1772214;81;21122;-78
2021/04/26 01:05:32;;;;;;;13.73;6.60;;;;;;;4.54;100.00;100079.55;1772030;81;21283;-78
2021/04/26 01:08:00;;;;;;;15.70;6.37;;;;;;;4.49;100.00;100076.41;1772231;81;21126;-78
2021/04/26 01:10:46;;;;;;;14.87;6.80;;;;;;;4.45;100.00;100079.00;1771976;81;21295;-78
2021/04/26 01:13:51;;;;;;;13.57;6.53;;;;;;;4.39;100.00;100074.99;1750685;81;21165;-78
2021/04/26 01:16:41;;;;;;;17.23;7.30;;;;;;;4.34;100.00;100077.23;1777073;80;21291;-77
2021/04/26 01:19:45;;;;;;;14.83;6.80;;;;;;;4.29;100.00;100068.75;1855135;77;22573;-78
2021/04/26 01:22:44;;;;;;;17.63;7.47;;;;;;;4.19;100.00;100073.52;1774145;81;21149;-76
2021/04/26 01:25:15;;;;;;;15.37;6.70;;;;;;;4.14;100.00;100065.52;1774384;81;21261;-78
2021/04/26 01:28:07;;;;;;;15.70;7.40;;;;;;;4.11;100.00;100067.98;1777665;81;21555;-77
2021/04/26 01:31:04;;;;;;;14.47;7.13;;;;;;;4.09;100.00;100067.27;1775256;81;21106;-78
2021/04/26 01:33:45;;;;;;;13.43;5.97;;;;;;;4.06;100.00;100069.34;1775571;81;21176;-77
2021/04/26 01:36:17;;;;;;;14.07;6.37;;;;;;;4.01;100.00;100070.22;1752431;81;21157;-78
2021/04/26 01:38:55;;;;;;;13.30;6.93;;;;;;;4.01;100.00;100055.50;1855194;77;22883;-78
2021/04/26 01:41:24;;;;;;;15.53;6.33;;;;;;;3.92;100.00;100060.63;1827496;78;21136;-78
2021/04/26 01:43:52;;;;;;;12.53;6.60;;;;;;;3.90;100.00;100054.56;1827457;78;21134;-78
2021/04/26 01:46:21;;;;;;;13.13;6.80;;;;;;;3.89;100.00;100056.87;1796340;78;21132;-78
2021/04/26 01:48:50;;;;;;;15.50;7.00;;;;;;;3.86;100.00;100053.13;1827423;78;21578;-78
2021/04/26 01:51:18;;;;;;;15.23;6.83;;;;;;;3.83;100.00;100047.19;1827706;78;21119;-78
2021/04/26 01:53:47;;;;;;;12.70;6.13;;;;;;;3.81;100.00;100059.34;1827472;78;21093;-78
2021/04/26 01:56:17;;;;;;;16.57;7.13;;;;;;;3.78;100.00;100055.58;1827715;78;21164;-78
2021/04/26 01:58:51;;;;;;;15.27;7.63;;;;;;;3.75;100.00;100049.14;1827345;78;21124;-78
2021/04/26 02:01:21;;;;;;;16.30;7.70;;;;;;;3.71;100.00;100049.05;1796324;78;21108;-78
2021/04/26 02:03:57;;;;;;;17.00;7.50;;;;;;;3.70;100.00;100052.22;1827449;78;21124;-78
2021/04/26 02:06:46;;;;;;;15.53;7.23;;;;;;;3.71;100.00;100043.70;1814733;77;23094;-78
2021/04/26 02:09:22;;;;;;;13.53;6.50;;;;;;;3.66;100.00;100045.40;1781835;80;21587;-78
2021/04/26 02:11:53;;;;;;;16.50;6.73;;;;;;;3.64;100.00;100049.19;1753802;80;21133;-78
2021/04/26 02:14:23;;;;;;;14.13;6.80;;;;;;;3.61;100.00;100042.25;1782200;80;21133;-78
2021/04/26 02:16:51;;;;;;;14.67;6.50;;;;;;;3.59;100.00;100042.88;1756438;80;21101;-78
2021/04/26 02:19:20;;;;;;;14.63;6.93;;;;;;;3.58;100.00;100041.20;1756260;80;21105;-78
2021/04/26 02:21:47;;;;;;;13.37;6.63;;;;;;;3.56;100.00;100046.66;1786665;80;21164;-78
2021/04/26 02:24:16;;;;;;;13.93;6.60;;;;;;;3.55;100.00;100046.28;1786348;80;21294;-78
2021/04/26 02:26:44;;;;;;;13.77;6.67;;;;;;;3.52;100.00;100043.86;1786560;79;21555;-77
2021/04/26 02:29:12;;;;;;;14.50;6.60;;;;;;;3.51;100.00;100041.34;1786527;80;21128;-78
2021/04/26 02:31:43;;;;;;;15.87;6.67;;;;;;;3.53;100.00;100033.54;1756534;80;21591;-78
2021/04/26 02:34:22;;;;;;;14.73;7.47;;;;;;;3.57;100.00;100032.80;1786351;80;21528;-78
2021/04/26 02:36:55;;;;;;;14.77;7.13;;;;;;;3.60;100.00;100032.55;1749246;81;21578;-77
2021/04/26 02:39:23;;;;;;;16.30;7.33;;;;;;;3.61;100.00;100033.77;1749591;82;21153;-78
2021/04/26 02:41:54;;;;;;;16.10;6.83;;;;;;;3.63;100.00;100034.98;1749664;82;21140;-78
2021/04/26 02:44:26;;;;;;;17.27;7.67;;;;;;;3.66;100.00;100036.53;1725078;82;21316;-78
2021/04/26 02:47:03;;;;;;;18.67;8.70;;;;;;;3.71;100.00;100037.01;1839477;77;28097;-78
2021/04/26 02:49:32;;;;;;;17.07;7.83;;;;;;;3.74;100.00;100036.27;1827694;78;21159;-78
2021/04/26 02:52:00;;;;;;;15.43;7.00;;;;;;;3.83;100.00;100035.16;1796211;78;21518;-78
2021/04/26 02:54:28;;;;;;;17.87;7.70;;;;;;;3.87;100.00;100033.41;1827524;78;21122;-78
2021/04/26 02:56:57;;;;;;;19.07;7.60;;;;;;;3.91;100.00;100035.34;1827463;78;21116;-78
2021/04/26 02:59:27;;;;;;;21.83;7.90;;;;;;;3.94;100.00;100031.08;1827450;78;21139;-78
2021/04/26 03:01:56;;;;;;;17.23;7.93;;;;;;;3.97;100.00;100028.99;1796853;78;21138;-78
2021/04/26 03:04:29;;;;;;;18.17;8.03;;;;;;;4.01;100.00;100024.23;1792622;78;21085;-78
2021/04/26 03:07:00;;;;;;;15.90;7.70;;;;;;;4.05;100.00;100028.34;1827308;78;21581;-78
2021/04/26 03:09:31;;;;;;;15.90;7.40;;;;;;;4.10;100.00;100027.46;1822912;78;21126;-78
2021/04/26 03:11:59;;;;;;;18.07;8.03;;;;;;;4.15;100.00;100029.27;1747197;82;21165;-78
2021/04/26 03:14:29;;;;;;;20.97;8.00;;;;;;;4.21;100.00;100025.21;1743479;82;21151;-77
2021/04/26 03:16:57;;;;;;;18.27;8.17;;;;;;;4.25;100.00;100025.80;1747152;82;21154;-78
2021/04/26 03:19:26;;;;;;;19.83;7.97;;;;;;;4.28;100.00;100029.56;1722749;82;21265;-78
2021/04/26 03:21:54;;;;;;;23.77;9.87;;;;;;;4.31;100.00;100024.80;1722412;81;21655;-78
2021/04/26 03:24:22;;;;;;;23.90;10.97;;;;;;;4.34;100.00;100020.52;1746846;82;21214;-78
2021/04/26 03:26:52;;;;;;;29.10;14.93;;;;;;;4.39;100.00;100017.43;1746951;82;21178;-78
2021/04/26 03:29:21;;;;;;;36.70;20.63;;;;;;;4.42;100.00;100010.98;1722582;82;21182;-77
2021/04/26 03:31:50;;;;;;;31.07;16.93;;;;;;;4.43;100.00;100017.55;1746928;82;21320;-77
2021/04/26 03:34:19;;;;;;;26.40;14.57;;;;;;;4.46;100.00;100015.95;1746657;82;21141;-78
2021/04/26 03:36:47;;;;;;;31.27;15.00;;;;;;;4.50;100.00;100026.75;1722077;82;21206;-78
2021/04/26 03:39:15;;;;;;;33.37;19.13;;;;;;;4.52;100.00;100028.80;1747103;82;21679;-78
2021/04/26 03:41:44;;;;;;;28.43;14.23;;;;;;;4.55;100.00;100017.83;1746897;82;21573;-77
2021/04/26 03:44:15;;;;;;;27.27;12.00;;;;;;;4.58;100.00;100017.20;1747096;81;21186;-78
2021/04/26 03:46:58;;;;;;;27.10;10.07;;;;;;;4.64;100.00;100014.84;1842213;77;22798;-76
2021/04/26 03:49:45;;;;;;;25.00;10.97;;;;;;;4.64;100.00;100009.48;1756255;82;21536;-78
2021/04/26 03:52:21;;;;;;;33.23;17.83;;;;;;;4.68;100.00;100012.25;1765715;81;21179;-76
2021/04/26 03:55:11;;;;;;;29.10;12.77;;;;;;;4.75;100.00;100010.72;1756146;82;21572;-76
2021/04/26 03:57:38;;;;;;;24.60;11.10;;;;;;;4.83;100.00;100010.55;1765630;81;21156;-77
2021/04/26 04:00:08;;;;;;;21.73;10.43;;;;;;;4.94;100.00;100009.96;1756373;82;21307;-77
2021/04/26 04:02:38;;;;;;;28.27;11.23;;;;;;;5.10;100.00;100010.80;1761050;81;21176;-77
2021/04/26 04:05:08;;;;;;;29.90;11.57;;;;;;;5.28;100.00;100015.50;1755972;82;21159;-77
2021/04/26 04:07:46;;;;;;;27.50;11.13;;;;;;;5.47;100.00;100001.25;1728994;83;21215;-77
2021/04/26 04:10:32;;;;;;;29.50;11.00;;;;;;;5.75;100.00;99996.06;1855069;77;22719;-78
2021/04/26 04:13:18;;;;;;;23.70;9.73;;;;;;;5.90;100.00;99999.52;1827658;78;21168;-78
2021/04/26 04:15:46;;;;;;;21.33;8.63;;;;;;;6.14;100.00;99994.73;1827529;78;21140;-77
2021/04/26 04:18:15;;;;;;;23.07;9.30;;;;;;;6.31;100.00;99989.97;1822831;78;21132;-77
2021/04/26 04:20:44;;;;;;;22.47;10.40;;;;;;;6.46;100.00;99990.34;1827418;78;21129;-78
2021/04/26 04:23:12;;;;;;;21.93;9.03;;;;;;;6.61;100.00;99987.55;1827472;78;21151;-77
2021/04/26 04:25:42;;;;;;;20.53;9.03;;;;;;;6.73;100.00;99981.50;1827395;78;21116;-78
2021/04/26 04:28:09;;;;;;;22.87;11.93;;;;;;;6.84;100.00;99978.61;1827448;78;21155;-79
2021/04/26 04:30:41;;;;;;;23.30;9.83;;;;;;;6.94;100.00;99981.27;1827459;78;21128;-78
2021/04/26 04:33:15;;;;;;;26.23;11.00;;;;;;;7.03;100.00;99973.64;1827343;78;21172;-79
2021/04/26 04:36:01;;;;;;;24.83;9.93;;;;;;;7.12;100.00;99970.55;1827987;78;21582;-79
2021/04/26 04:38:48;;;;;;;19.67;10.07;;;;;;;7.21;100.00;99964.77;1827862;78;21112;-79
2021/04/26 04:41:34;;;;;;;20.20;9.90;;;;;;;7.28;100.00;99968.55;1827602;78;21157;-78
2021/04/26 04:44:05;;;;;;;22.17;10.30;;;;;;;7.32;100.00;99970.44;1827870;78;21282;-78
2021/04/26 04:46:34;;;;;;;18.90;9.47;;;;;;;7.33;100.00;99961.34;1827429;78;21570;-78
2021/04/26 04:49:05;;;;;;;17.57;8.33;;;;;;;7.39;100.00;99961.59;1822912;78;21124;-77
2021/04/26 04:51:37;;;;;;;23.17;9.60;;;;;;;7.53;100.00;99963.42;1827411;78;21160;-77
2021/04/26 04:54:06;;;;;;;16.32;8.33;;;;;;;7.72;100.00;99954.32;1827556;78;21135;-77
2021/04/26 04:56:39;;;;;;;18.42;9.23;;;;;;;7.90;100.00;99953.82;1747339;82;21157;-77
2021/04/26 04:59:07;;;;;;;22.33;11.37;;;;;;;8.06;100.00;99950.92;1747195;82;21164;-77
2021/04/26 05:01:36;;;;;;;25.17;12.00;;;;;;;8.17;100.00;99945.27;1747264;82;21626;-77
2021/04/26 05:04:22;;;;;;;23.27;11.63;;;;;;;8.26;100.00;99951.55;1747177;82;21129;-72
2021/04/26 05:07:08;;;;;;;22.93;11.97;;;;;;;8.30;100.00;99948.88;1747160;82;21173;-75
2021/04/26 05:09:55;;;;;;;34.07;20.80;;;;;;;8.40;100.00;99950.97;1742357;81;21205;-73
2021/04/26 05:12:42;;;;;;;28.90;15.13;;;;;;;8.49;100.00;99946.00;1739945;82;21237;-70
2021/04/26 05:15:22;;;;;;;36.83;23.30;;;;;;;8.73;100.00;99938.55;1814784;77;22669;-71
2021/04/26 05:17:52;;;;;;;135.73;96.90;;;;;;;8.88;100.00;99941.46;1786499;80;21270;-74
2021/04/26 05:20:20;;;;;;;31.17;16.60;;;;;;;9.13;100.00;99941.04;1786415;80;21235;-72
2021/04/26 05:22:49;;;;;;;89.23;67.03;;;;;;;9.39;100.00;99935.22;1786424;80;21140;-77
2021/04/26 05:25:16;;;;;;;42.63;26.20;;;;;;;9.59;100.00;99933.05;1786695;80;21729;-74
2021/04/26 05:27:44;;;;;;;28.00;16.83;;;;;;;9.73;100.00;99935.08;1786347;80;21145;-71
2021/04/26 05:30:15;;;;;;;28.13;16.27;;;;;;;9.89;100.00;99925.61;1786459;80;21141;-73
2021/04/26 05:32:43;;;;;;;25.00;14.30;;;;;;;10.03;100.00;99930.01;1786396;80;21153;-74
2021/04/26 05:35:12;;;;;;;21.33;10.87;;;;;;;10.09;100.00;99925.26;1738497;81;21216;-71
2021/04/26 05:37:49;;;;;;;22.17;9.63;;;;;;;10.18;100.00;99920.20;1886409;76;21788;-72
2021/04/26 05:40:17;;;;;;;19.17;8.35;;;;;;;10.18;100.00;99919.34;1819922;77;21174;-72
2021/04/26 05:42:47;;;;;;;17.67;8.83;;;;;;;10.24;100.00;99908.69;1814201;77;21124;-73
2021/04/26 05:45:18;;;;;;;31.00;10.07;;;;;;;10.32;100.00;99906.50;1813547;79;21285;-74
2021/04/26 05:48:06;;;;;;;21.52;9.63;;;;;;;10.41;100.00;99905.98;1813393;79;21131;-72
2021/04/26 05:50:37;;;;;;;29.12;12.28;;;;;;;10.51;100.00;99904.44;1813329;79;21116;-72
2021/04/26 05:53:04;;;;;;;27.80;12.23;;;;;;;10.56;100.00;99903.41;1838159;78;21149;-72
2021/04/26 05:55:32;;;;;;;17.82;8.70;;;;;;;10.61;100.00;99903.73;1767393;81;21166;-72
2021/04/26 05:58:02;;;;;;;21.30;8.60;;;;;;;10.61;100.00;99901.87;1830466;78;21122;-74
2021/04/26 06:00:30;;;;;;;18.23;8.43;;;;;;;10.61;100.00;99901.03;1830255;78;21269;-73
2021/04/26 06:03:00;;;;;;;17.95;9.10;;;;;;;10.64;100.00;99896.60;1816813;78;21505;-74
2021/04/26 06:05:28;;;;;;;19.70;9.75;;;;;;;10.63;100.00;99890.36;1813512;79;21123;-74
2021/04/26 06:07:58;;;;;;;22.70;9.73;;;;;;;10.63;100.00;99889.02;1814126;77;21605;-74
2021/04/26 06:10:27;;;;;;;23.23;12.67;;;;;;;10.73;100.00;99892.01;1863415;77;21262;-72
2021/04/26 06:12:55;;;;;;;27.17;13.90;;;;;;;10.81;100.00;99882.00;1836056;77;21117;-76
2021/04/26 06:15:23;;;;;;;23.00;12.47;;;;;;;10.77;100.00;99891.48;1820257;78;21157;-74
2021/04/26 06:17:51;;;;;;;21.27;9.10;;;;;;;10.90;100.00;99886.02;1813014;79;21317;-73
2021/04/26 06:20:18;;;;;;;17.40;8.18;;;;;;;11.10;100.00;99892.69;1813024;79;21127;-73
2021/04/26 06:22:46;;;;;;;19.35;9.28;;;;;;;11.46;100.00;99884.50;1813144;79;21596;-74
2021/04/26 06:25:15;;;;;;;23.05;12.55;;;;;;;11.78;100.00;99882.87;1813138;79;21157;-76
2021/04/26 06:27:43;;;;;;;19.00;8.93;;;;;;;12.03;100.00;99884.55;1813107;79;21197;-72
2021/04/26 06:30:14;;;;;;;21.73;9.05;;;;;;;12.23;100.00;99874.00;1813298;79;21156;-73
2021/04/26 06:32:42;;;;;;;15.32;6.10;;;;;;;12.53;100.00;99882.46;1813346;79;21667;-73
2021/04/26 06:35:11;;;;;;;12.00;5.83;;;;;;;12.83;96.34;99877.01;1813389;79;21150;-75
2021/04/26 06:37:41;;;;;;;12.18;6.17;;;;;;;12.97;90.40;99866.33;1811448;79;21516;-73
2021/04/26 06:40:11;;;;;;;12.75;6.08;;;;;;;13.11;93.21;99867.63;1817720;77;21159;-75
2021/04/26 06:42:39;;;;;;;18.62;8.28;;;;;;;13.42;90.62;99862.47;1816999;78;21133;-77
2021/04/26 06:45:07;;;;;;;16.12;6.67;;;;;;;13.84;81.54;99858.01;1807741;79;21092;-77
2021/04/26 06:47:36;;;;;;;49.65;29.90;;;;;;;14.10;72.58;99856.54;1818523;78;21275;-74
2021/04/26 06:50:05;;;;;;;14.35;5.33;;;;;;;13.97;69.74;99855.94;1766759;80;21837;-71
2021/04/26 06:52:34;;;;;;;17.00;5.62;;;;;;;13.76;74.53;99858.17;1809354;77;21568;-71
2021/04/26 06:55:03;;;;;;;21.20;9.80;;;;;;;13.61;75.64;99852.80;1752033;80;21142;-70
2021/04/26 06:57:31;;;;;;;23.18;8.93;;;;;;;13.47;78.41;99853.72;1816632;78;21745;-73
2021/04/26 06:59:59;;;;;;;15.68;7.03;;;;;;;13.48;78.60;99844.02;1758854;81;21652;-69
2021/04/26 07:02:26;;;;;;;16.27;6.40;;;;;;;13.53;75.73;99848.87;1765564;81;21307;-71
2021/04/26 07:04:56;;;;;;;13.98;4.95;;;;;;;13.55;76.40;99840.02;1748738;81;21179;-69
2021/04/26 07:07:24;;;;;;;14.13;5.30;;;;;;;13.79;72.07;99837.90;1818592;78;21575;-69
2021/04/26 07:09:52;;;;;;;20.85;5.45;;;;;;;14.08;69.95;99835.52;1811289;78;21168;-69
2021/04/26 07:12:20;;;;;;;10.45;4.65;;;;;;;14.45;70.04;99829.35;1806871;78;21190;-70
2021/04/26 07:14:48;;;;;;;13.85;6.33;;;;;;;14.66;69.93;99835.74;1808896;79;21149;-72
2021/04/26 07:17:19;;;;;;;27.15;10.05;;;;;;;14.76;67.37;99835.67;1809030;77;21175;-72
2021/04/26 07:19:48;;;;;;;15.80;6.30;;;;;;;14.80;69.93;99815.70;1807064;79;21197;-72
2021/04/26 07:22:15;;;;;;;23.98;12.33;;;;;;;14.73;64.91;99824.36;1806683;79;21559;-71
2021/04/26 07:24:43;;;;;;;16.75;5.87;;;;;;;14.47;67.67;99830.52;1806707;79;21145;-68
2021/04/26 07:27:13;;;;;;;17.57;5.95;;;;;;;14.42;70.67;99829.22;1806913;79;21193;-71
2021/04/26 07:29:41;;;;;;;22.70;6.60;;;;;;;14.59;70.71;99818.05;1807189;78;21329;-68
2021/04/26 07:32:09;;;;;;;21.23;7.53;;;;;;;14.69;68.71;99827.18;1749565;80;21312;-71
2021/04/26 07:34:37;;;;;;;14.73;5.80;;;;;;;14.57;67.41;99822.30;1809564;78;21123;-69
2021/04/26 07:37:05;;;;;;;12.75;5.67;;;;;;;14.36;72.79;99822.38;1809109;79;21168;-72
2021/04/26 07:39:33;;;;;;;14.30;5.90;;;;;;;14.14;70.20;99824.36;1811682;78;21164;-69
2021/04/26 07:42:01;;;;;;;18.48;6.85;;;;;;;13.80;72.83;99817.85;1811812;79;21138;-70
2021/04/26 07:44:32;;;;;;;18.50;6.90;;;;;;;13.50;75.75;99822.62;1811357;78;21110;-70
2021/04/26 07:47:00;;;;;;;14.38;6.15;;;;;;;13.35;81.09;99821.33;1810265;79;21686;-71
2021/04/26 07:49:29;;;;;;;14.45;6.15;;;;;;;13.30;81.36;99817.82;1810956;79;21141;-70
2021/04/26 07:51:58;;;;;;;20.95;6.33;;;;;;;13.21;79.29;99822.54;1812248;78;21192;-71
2021/04/26 07:54:26;;;;;;;19.57;5.85;;;;;;;13.06;81.97;99813.60;1811944;79;21296;-71
2021/04/26 07:56:54;;;;;;;13.08;5.08;;;;;;;12.91;84.63;99823.16;1811896;79;21187;-68
2021/04/26 07:59:23;;;;;;;18.77;5.90;;;;;;;12.80;85.15;99814.14;1810894;79;21122;-70
2021/04/26 08:01:50;;;;;;;10.93;4.85;;;;;;;12.68;86.12;99811.11;1811045;78;21580;-70
2021/04/26 08:04:18;;;;;;;14.18;5.42;;;;;;;12.62;87.79;99813.20;1810783;79;21130;-68
2021/04/26 08:06:46;;;;;;;10.32;4.65;;;;;;;12.61;87.13;99812.90;1841226;78;21129;-71
2021/04/26 08:09:15;;;;;;;14.98;5.55;;;;;;;12.57;87.62;99808.86;1822759;78;21125;-69
2021/04/26 08:11:44;;;;;;;11.83;4.30;;;;;;;12.52;88.83;99806.73;1812904;78;21106;-70
2021/04/26 08:14:12;;;;;;;8.95;4.10;;;;;;;12.47;90.54;99811.88;1809673;77;21582;-71
2021/04/26 08:16:39;;;;;;;8.30;3.95;;;;;;;12.47;91.40;99798.33;1810445;79;21129;-69
2021/04/26 08:19:07;;;;;;;9.80;4.28;;;;;;;12.49;93.45;99801.16;1809774;78;21146;-70
2021/04/26 08:21:35;;;;;;;14.43;4.65;;;;;;;12.49;92.05;99799.80;1827095;78;21540;-69
2021/04/26 08:24:05;;;;;;;10.72;4.30;;;;;;;12.45;94.61;99796.33;1763439;81;21170;-68
2021/04/26 08:26:33;;;;;;;9.63;3.70;;;;;;;12.41;93.16;99788.22;1823285;79;21302;-69
2021/04/26 08:29:00;;;;;;;11.90;4.30;;;;;;;12.35;95.11;99794.72;1743643;81;21150;-68
2021/04/26 08:31:28;;;;;;;11.75;4.67;;;;;;;12.32;89.14;99791.55;1829011;78;21142;-68
2021/04/26 08:33:57;;;;;;;10.40;3.80;;;;;;;12.29;88.52;99790.06;1754115;81;21133;-70
2021/04/26 08:36:25;;;;;;;8.98;4.12;;;;;;;12.28;87.05;99787.54;1746325;81;21113;-71
2021/04/26 08:38:53;;;;;;;11.35;3.90;;;;;;;12.24;87.72;99790.31;1808986;78;21636;-69
2021/04/26 08:41:21;;;;;;;17.17;6.95;;;;;;;12.18;91.85;99789.69;1799342;78;21579;-71
2021/04/26 08:43:49;;;;;;;9.13;4.25;;;;;;;12.09;96.32;99784.88;1802808;78;21255;-69
2021/04/26 08:46:20;;;;;;;13.03;4.55;;;;;;;12.02;95.10;99791.55;1798927;79;22016;-70
2021/04/26 08:48:48;;;;;;;10.40;4.22;;;;;;;11.95;95.34;99793.33;1810818;79;21149;-68
2021/04/26 08:51:17;;;;;;;12.20;4.70;;;;;;;11.89;97.00;99782.70;1809486;79;21103;-69
2021/04/26 08:53:45;;;;;;;11.33;3.98;;;;;;;11.86;97.71;99783.06;1810010;78;21585;-71
2021/04/26 08:56:13;;;;;;;14.20;4.35;;;;;;;11.87;99.83;99789.34;1811819;79;21624;-70
2021/04/26 08:58:41;;;;;;;6.08;3.70;;;;;;;11.86;100.00;99793.06;1812889;77;21272;-74
2021/04/26 09:01:11;;;;;;;9.15;4.35;;;;;;;11.77;100.00;99777.41;1811856;79;21181;-74
2021/04/26 09:03:39;;;;;;;11.08;4.17;;;;;;;11.72;100.00;99781.18;1808492;79;21133;-69
2021/04/26 09:06:10;;;;;;;8.88;4.53;;;;;;;11.67;100.00;99774.98;1804240;78;21256;-72
2021/04/26 09:08:38;;;;;;;8.88;4.20;;;;;;;11.64;100.00;99773.16;1791875;78;21593;-69
2021/04/26 09:11:08;;;;;;;12.60;4.33;;;;;;;11.64;100.00;99778.57;1811780;79;21668;-73
2021/04/26 09:13:41;;;;;;;11.48;3.85;;;;;;;11.63;100.00;99776.88;1812308;79;21619;-70
2021/04/26 09:16:26;;;;;;;8.68;4.10;;;;;;;11.58;100.00;99775.57;1806107;77;21287;-69
2021/04/26 09:19:01;;;;;;;12.58;4.62;;;;;;;11.54;100.00;99785.09;1796531;79;21318;-69
2021/04/26 09:21:33;;;;;;;12.05;4.40;;;;;;;11.46;100.00;99777.04;1743892;82;21137;-71
2021/04/26 09:24:25;;;;;;;11.25;4.10;;;;;;;11.39;100.00;99780.15;1699391;81;21146;-69
2021/04/26 09:27:10;;;;;;;12.10;4.28;;;;;;;11.29;100.00;99777.68;1744168;81;21224;-68
2021/04/26 09:29:40;;;;;;;11.75;4.12;;;;;;;11.21;100.00;99777.25;1780898;80;21157;-67
2021/04/26 09:32:15;;;;;;;14.85;4.30;;;;;;;11.15;100.00;99779.31;1784263;80;21295;-69
2021/04/26 09:34:52;;;;;;;7.40;3.85;;;;;;;11.11;100.00;99768.53;1783665;80;21595;-70
2021/04/26 09:37:27;;;;;;;15.88;4.70;;;;;;;11.09;100.00;99766.52;1776858;80;21181;-70
2021/04/26 09:40:06;;;;;;;19.42;5.58;;;;;;;11.07;100.00;99764.52;1748421;80;21172;-68
2021/04/26 09:42:53;;;;;;;9.45;4.55;;;;;;;11.04;100.00;99763.52;1730181;82;21121;-70
2021/04/26 09:45:29;;;;;;;15.25;5.03;;;;;;;10.99;100.00;99761.34;1720112;82;21279;-70
2021/04/26 09:48:15;;;;;;;10.40;4.20;;;;;;;10.94;100.00;99763.77;1727362;83;21148;-69
2021/04/26 09:51:00;;;;;;;10.63;4.67;;;;;;;10.94;100.00;99758.36;1811944;77;23053;-68
2021/04/26 09:53:35;;;;;;;10.28;4.15;;;;;;;10.88;100.00;99759.59;1769923;81;21303;-69
2021/04/26 09:56:25;;;;;;;15.55;5.58;;;;;;;10.89;100.00;99757.19;1727324;83;21187;-68
2021/04/26 09:59:04;;;;;;;21.17;8.18;;;;;;;10.99;100.00;99762.69;1811671;77;22920;-69
2021/04/26 10:01:35;;;;;;;16.20;7.67;;;;;;;11.00;100.00;99764.39;1773882;80;21173;-69
2021/04/26 10:04:05;;;;;;;13.50;6.08;;;;;;;11.02;100.00;99762.86;1761640;81;21476;-70
2021/04/26 10:06:35;;;;;;;9.28;5.60;;;;;;;10.99;100.00;99764.56;1747074;81;21113;-70
2021/04/26 10:09:06;;;;;;;10.80;5.10;;;;;;;10.98;100.00;99760.19;1773415;81;21142;-69
2021/04/26 10:11:36;;;;;;;14.50;5.03;;;;;;;10.93;100.00;99762.08;1773694;81;21283;-69
2021/04/26 10:14:10;;;;;;;17.15;7.10;;;;;;;10.91;100.00;99756.01;1773599;81;21129;-68
2021/04/26 10:17:06;;;;;;;20.10;7.10;;;;;;;10.91;100.00;99759.23;1758374;81;21563;-68
2021/04/26 10:19:45;;;;;;;15.68;6.05;;;;;;;10.89;100.00;99760.77;1743021;82;21165;-70
2021/04/26 10:22:14;;;;;;;23.15;6.95;;;;;;;10.91;100.00;99754.66;1749322;79;21250;-70
2021/04/26 10:24:55;;;;;;;17.05;4.95;;;;;;;10.91;100.00;99756.53;1732064;82;21754;-68
2021/04/26 10:27:39;;;;;;;12.13;5.28;;;;;;;10.91;100.00;99760.06;1742606;82;21177;-70
2021/04/26 10:30:13;;;;;;;;;;;;;;;10.84;100.00;99755.05;1715747;84;21143;-73
2021/04/26 10:33:03;;;;;;;15.40;5.57;;;;;;;10.73;100.00;99749.55;1716241;83;20211;-71
2021/04/26 10:35:50;;;;;;;9.27;4.60;;;;;;;10.72;100.00;99752.42;1815498;77;22798;-70
2021/04/26 10:38:46;;;;;;;10.17;3.83;;;;;;;10.64;100.00;99764.98;1787307;80;21149;-69
2021/04/26 10:41:14;;;;;;;8.40;3.80;;;;;;;10.61;100.00;99762.63;1758740;80;21137;-70
2021/04/26 10:43:49;;;;;;;8.83;4.13;;;;;;;10.52;100.00;99754.23;1723929;82;21318;-69
2021/04/26 10:46:20;;;;;;;14.17;4.20;;;;;;;10.48;100.00;99748.00;1750997;82;21287;-69
2021/04/26 10:49:10;;;;;;;8.80;4.20;;;;;;;10.38;100.00;99755.82;1756337;82;21550;-68
2021/04/26 10:51:38;;;;;;;8.40;4.00;;;;;;;10.32;100.00;99750.27;1762055;80;21241;-70
2021/04/26 10:54:08;;;;;;;8.87;4.57;;;;;;;10.26;100.00;99751.80;1770459;80;21122;-68
2021/04/26 10:56:38;;;;;;;11.27;4.60;;;;;;;10.26;100.00;99749.92;1760880;80;21144;-70
2021/04/26 10:59:22;;;;;;;9.00;3.73;;;;;;;10.23;100.00;99750.30;1755505;82;21125;-69
2021/04/26 11:01:52;;;;;;;7.30;3.50;;;;;;;10.19;100.00;99748.11;1755418;82;21671;-70
2021/04/26 11:04:20;;;;;;;11.80;4.20;;;;;;;10.13;100.00;99758.25;1749924;80;21156;-70
2021/04/26 11:09:44;;;;;;;8.80;4.20;;;;;;;9.99;100.00;99774.70;1741488;82;21526;-70
2021/04/26 11:12:32;;;;;;;8.03;4.07;;;;;;;9.90;100.00;99779.29;1811268;77;22738;-71
2021/04/26 11:15:15;;;;;;;10.10;4.40;;;;;;;9.71;100.00;99779.16;1772874;80;21552;-70
2021/04/26 11:17:44;;;;;;;5.78;3.70;;;;;;;9.53;100.00;99777.17;1700275;83;21226;-69
2021/04/26 11:20:25;;;;;;;6.67;3.93;;;;;;;9.35;100.00;99775.50;1698309;84;21591;-74
2021/04/26 11:22:56;;;;;;;6.73;3.83;;;;;;;9.24;100.00;99794.70;1712027;81;21312;-73
2021/04/26 11:25:38;;;;;;;7.30;4.07;;;;;;;9.10;100.00;99778.20;1726947;83;21167;-70
2021/04/26 11:28:09;;;;;;;11.10;3.95;;;;;;;9.00;100.00;99795.04;1727171;83;21570;-71
2021/04/26 11:30:37;;;;;;;10.00;4.27;;;;;;;8.89;100.00;99794.86;1727144;83;21179;-71
2021/04/26 11:33:11;;;;;;;9.27;4.00;;;;;;;8.78;100.00;99790.28;1727367;83;21629;-70
2021/04/26 11:36:16;;;;;;;10.33;4.90;;;;;;;8.70;100.00;99795.16;1726238;83;21170;-71
2021/04/26 11:38:46;;;;;;;8.73;4.10;;;;;;;8.62;100.00;99793.78;1697381;84;21192;-72
2021/04/26 11:41:14;;;;;;;7.07;4.50;;;;;;;8.41;100.00;99819.78;1724397;83;21216;-72
2021/04/26 11:43:46;;;;;;;9.27;4.60;;;;;;;8.21;100.00;99815.16;1724991;83;21173;-70
2021/04/26 11:46:18;;;;;;;9.15;4.50;;;;;;;8.02;100.00;99809.50;1725605;83;21157;-71